sensor_id;sensor_type;location;lat;lon;timestamp;pressure;altitude;pressure_sealevel;temperature;humidity
9784;BME280;4931;44.874;-1.092;2023-05-13T00:02:14;101711.22;;;12.39;100.00
9784;BME280;4931;44.874;-1.092;2023-05-13T00:04:39;101713.44;;;12.37;100.00
9784;BME280;4931;44.874;-1.092;2023-05-13T00:07:05;101714.81;;;12.35;100.00
9784;BME280;4931;44.874;-1.092;2023-05-13T00:09:30;101713.16;;;12.34;100.00
9784;BME280;4931;44.874;-1.092;2023-05-13T00:11:55;101705.69;;;12.29;100.00
9784;BME280;4931;44.874;-1.092;2023-05-13T00:14:21;101713.94;;;12.29;100.00
9784;BME280;4931;44.874;-1.092;2023-05-13T00:16:46;101719.97;;;12.26;100.00
9784;BME280;4931;44.874;-1.092;2023-05-13T00:19:11;101719.16;;;12.25;100.00
9784;BME280;4931;44.874;-1.092;2023-05-13T00:21:37;101715.00;;;12.18;100.00
9784;BME280;4931;44.874;-1.092;2023-05-13T00:24:02;101709.19;;;12.14;100.00
9784;BME280;4931;44.874;-1.092;2023-05-13T00:26:28;101712.22;;;12.12;100.00
9784;BME280;4931;44.874;-1.092;2023-05-13T00:28:53;101716.88;;;12.12;100.00
9784;BME280;4931;44.874;-1.092;2023-05-13T00:31:18;101711.63;;;12.05;100.00
9784;BME280;4931;44.874;-1.092;2023-05-13T00:33:44;101698.41;;;12.02;100.00
9784;BME280;4931;44.874;-1.092;2023-05-13T00:36:09;101702.81;;;12.03;100.00
9784;BME280;4931;44.874;-1.092;2023-05-13T00:38:36;101701.16;;;12.02;100.00
9784;BME280;4931;44.874;-1.092;2023-05-13T00:41:02;101691.81;;;12.03;100.00
9784;BME280;4931;44.874;-1.092;2023-05-13T00:43:27;101696.22;;;12.04;100.00
9784;BME280;4931;44.874;-1.092;2023-05-13T00:45:53;101690.72;;;11.99;100.00
9784;BME280;4931;44.874;-1.092;2023-05-13T00:48:18;101688.47;;;11.96;100.00
9784;BME280;4931;44.874;-1.092;2023-05-13T00:50:43;101690.91;;;11.92;100.00
9784;BME280;4931;44.874;-1.092;2023-05-13T00:53:09;101682.03;;;11.80;100.00
9784;BME280;4931;44.874;-1.092;2023-05-13T00:55:35;101685.88;;;11.79;100.00
9784;BME280;4931;44.874;-1.092;2023-05-13T00:58:00;101688.88;;;11.77;100.00
9784;BME280;4931;44.874;-1.092;2023-05-13T01:00:26;101685.03;;;11.78;100.00
9784;BME280;4931;44.874;-1.092;2023-05-13T01:02:56;101685.59;;;11.75;100.00
9784;BME280;4931;44.874;-1.092;2023-05-13T01:05:30;101689.94;;;11.66;100.00
9784;BME280;4931;44.874;-1.092;2023-05-13T01:08:12;101693.66;;;11.50;100.00
9784;BME280;4931;44.874;-1.092;2023-05-13T01:10:43;101700.09;;;11.33;100.00
9784;BME280;4931;44.874;-1.092;2023-05-13T01:13:12;101693.47;;;11.29;100.00
9784;BME280;4931;44.874;-1.092;2023-05-13T01:15:39;101695.09;;;11.25;100.00
9784;BME280;4931;44.874;-1.092;2023-05-13T01:18:09;101690.91;;;11.17;100.00
9784;BME280;4931;44.874;-1.092;2023-05-13T01:20:37;101682.72;;;11.22;100.00
9784;BME280;4931;44.874;-1.092;2023-05-13T01:23:04;101683.03;;;11.26;100.00
9784;BME280;4931;44.874;-1.092;2023-05-13T01:25:31;101674.81;;;11.31;100.00
9784;BME280;4931;44.874;-1.092;2023-05-13T01:27:56;101680.81;;;11.28;100.00
9784;BME280;4931;44.874;-1.092;2023-05-13T01:30:21;101686.91;;;11.30;100.00
9784;BME280;4931;44.874;-1.092;2023-05-13T01:32:47;101687.97;;;11.29;100.00
9784;BME280;4931;44.874;-1.092;2023-05-13T01:35:13;101686.84;;;11.25;100.00
9784;BME280;4931;44.874;-1.092;2023-05-13T01:37:39;101681.25;;;11.15;100.00
9784;BME280;4931;44.874;-1.092;2023-05-13T01:40:05;101684.88;;;11.15;100.00
9784;BME280;4931;44.874;-1.092;2023-05-13T01:42:32;101680.66;;;11.07;100.00
9784;BME280;4931;44.874;-1.092;2023-05-13T01:44:58;101679.00;;;11.06;100.00
9784;BME280;4931;44.874;-1.092;2023-05-13T01:47:23;101686.63;;;10.99;100.00
9784;BME280;4931;44.874;-1.092;2023-05-13T01:49:49;101678.34;;;10.94;100.00
9784;BME280;4931;44.874;-1.092;2023-05-13T01:52:14;101681.66;;;10.96;100.00
9784;BME280;4931;44.874;-1.092;2023-05-13T01:54:39;101673.38;;;10.91;100.00
9784;BME280;4931;44.874;-1.092;2023-05-13T01:57:04;101680.34;;;10.76;100.00
9784;BME280;4931;44.874;-1.092;2023-05-13T01:59:30;101677.06;;;10.74;100.00
9784;BME280;4931;44.874;-1.092;2023-05-13T02:01:55;101676.22;;;10.74;100.00
9784;BME280;4931;44.874;-1.092;2023-05-13T02:04:21;101683.03;;;10.71;100.00
9784;BME280;4931;44.874;-1.092;2023-05-13T02:06:46;101685.72;;;10.66;100.00
9784;BME280;4931;44.874;-1.092;2023-05-13T02:09:11;101689.00;;;10.63;100.00
9784;BME280;4931;44.874;-1.092;2023-05-13T02:11:37;101687.69;;;10.43;100.00
9784;BME280;4931;44.874;-1.092;2023-05-13T02:14:02;101687.16;;;10.46;100.00
9784;BME280;4931;44.874;-1.092;2023-05-13T02:16:28;101684.47;;;10.52;100.00
9784;BME280;4931;44.874;-1.092;2023-05-13T02:18:57;101691.69;;;10.58;100.00
9784;BME280;4931;44.874;-1.092;2023-05-13T02:21:22;101684.03;;;10.60;100.00
9784;BME280;4931;44.874;-1.092;2023-05-13T02:23:48;101689.53;;;10.60;100.00
9784;BME280;4931;44.874;-1.092;2023-05-13T02:26:13;101690.09;;;10.62;100.00
9784;BME280;4931;44.874;-1.092;2023-05-13T02:28:38;101694.44;;;10.58;100.00
9784;BME280;4931;44.874;-1.092;2023-05-13T02:31:04;101697.25;;;10.63;100.00
9784;BME280;4931;44.874;-1.092;2023-05-13T02:33:29;101686.84;;;10.65;100.00
9784;BME280;4931;44.874;-1.092;2023-05-13T02:35:54;101690.66;;;10.64;100.00
9784;BME280;4931;44.874;-1.092;2023-05-13T02:38:20;101693.97;;;10.66;100.00
9784;BME280;4931;44.874;-1.092;2023-05-13T02:40:45;101695.91;;;10.66;100.00
9784;BME280;4931;44.874;-1.092;2023-05-13T02:43:10;101702.53;;;10.70;100.00
9784;BME280;4931;44.874;-1.092;2023-05-13T02:45:36;101702.84;;;10.73;100.00
9784;BME280;4931;44.874;-1.092;2023-05-13T02:48:01;101703.88;;;10.67;100.00
9784;BME280;4931;44.874;-1.092;2023-05-13T02:50:27;101701.38;;;10.66;100.00
9784;BME280;4931;44.874;-1.092;2023-05-13T02:52:52;101706.22;;;10.58;100.00
9784;BME280;4931;44.874;-1.092;2023-05-13T02:55:17;101709.81;;;10.59;100.00
9784;BME280;4931;44.874;-1.092;2023-05-13T02:57:43;101710.38;;;10.61;100.00
9784;BME280;4931;44.874;-1.092;2023-05-13T03:00:08;101712.63;;;10.64;100.00
9784;BME280;4931;44.874;-1.092;2023-05-13T03:02:33;101711.72;;;10.58;100.00
9784;BME280;4931;44.874;-1.092;2023-05-13T03:04:59;101708.69;;;10.55;100.00
9784;BME280;4931;44.874;-1.092;2023-05-13T03:07:25;101710.56;;;10.54;100.00
9784;BME280;4931;44.874;-1.092;2023-05-13T03:09:50;101708.34;;;10.51;100.00
9784;BME280;4931;44.874;-1.092;2023-05-13T03:12:16;101716.91;;;10.55;100.00
9784;BME280;4931;44.874;-1.092;2023-05-13T03:14:41;101720.16;;;10.52;100.00
9784;BME280;4931;44.874;-1.092;2023-05-13T03:17:08;101715.25;;;10.54;100.00
9784;BME280;4931;44.874;-1.092;2023-05-13T03:19:34;101716.91;;;10.55;100.00
9784;BME280;4931;44.874;-1.092;2023-05-13T03:22:00;101713.91;;;10.56;100.00
9784;BME280;4931;44.874;-1.092;2023-05-13T03:24:25;101716.25;;;10.48;100.00
9784;BME280;4931;44.874;-1.092;2023-05-13T03:26:50;101712.91;;;10.40;100.00
9784;BME280;4931;44.874;-1.092;2023-05-13T03:29:16;101708.81;;;10.43;100.00
9784;BME280;4931;44.874;-1.092;2023-05-13T03:31:41;101705.81;;;10.44;100.00
9784;BME280;4931;44.874;-1.092;2023-05-13T03:34:06;101706.34;;;10.41;100.00
9784;BME280;4931;44.874;-1.092;2023-05-13T03:36:32;101705.16;;;10.37;100.00
9784;BME280;4931;44.874;-1.092;2023-05-13T03:38:57;101706.34;;;10.41;100.00
9784;BME280;4931;44.874;-1.092;2023-05-13T03:41:22;101715.56;;;10.35;100.00
9784;BME280;4931;44.874;-1.092;2023-05-13T03:43:48;101716.13;;;10.37;100.00
9784;BME280;4931;44.874;-1.092;2023-05-13T03:46:13;101710.97;;;10.41;100.00
9784;BME280;4931;44.874;-1.092;2023-05-13T03:48:38;101712.38;;;10.43;100.00
9784;BME280;4931;44.874;-1.092;2023-05-13T03:51:04;101714.59;;;10.46;100.00
9784;BME280;4931;44.874;-1.092;2023-05-13T03:53:29;101717.59;;;10.45;100.00
9784;BME280;4931;44.874;-1.092;2023-05-13T03:55:54;101723.19;;;10.33;100.00
9784;BME280;4931;44.874;-1.092;2023-05-13T03:58:20;101730.25;;;10.29;100.00
9784;BME280;4931;44.874;-1.092;2023-05-13T04:00:48;101722.56;;;10.26;100.00
9784;BME280;4931;44.874;-1.092;2023-05-13T04:03:14;101729.75;;;10.32;100.00
9784;BME280;4931;44.874;-1.092;2023-05-13T04:05:46;101724.97;;;10.22;100.00
9784;BME280;4931;44.874;-1.092;2023-05-13T04:08:11;101727.53;;;10.29;100.00
9784;BME280;4931;44.874;-1.092;2023-05-13T04:10:37;101731.78;;;10.20;100.00
9784;BME280;4931;44.874;-1.092;2023-05-13T04:13:02;101736.13;;;10.16;100.00
9784;BME280;4931;44.874;-1.092;2023-05-13T04:15:28;101736.56;;;10.07;100.00
9784;BME280;4931;44.874;-1.092;2023-05-13T04:17:53;101741.78;;;10.09;100.00
9784;BME280;4931;44.874;-1.092;2023-05-13T04:20:18;101742.59;;;10.09;100.00
9784;BME280;4931;44.874;-1.092;2023-05-13T04:22:44;101739.94;;;10.14;100.00
9784;BME280;4931;44.874;-1.092;2023-05-13T04:25:09;101747.16;;;10.21;100.00
9784;BME280;4931;44.874;-1.092;2023-05-13T04:27:34;101750.38;;;10.18;100.00
9784;BME280;4931;44.874;-1.092;2023-05-13T04:30:00;101748.75;;;10.17;100.00
9784;BME280;4931;44.874;-1.092;2023-05-13T04:32:25;101754.09;;;10.06;100.00
9784;BME280;4931;44.874;-1.092;2023-05-13T04:34:51;101761.72;;;10.04;100.00
9784;BME280;4931;44.874;-1.092;2023-05-13T04:37:17;101756.25;;;10.04;100.00
9784;BME280;4931;44.874;-1.092;2023-05-13T04:39:45;101758.72;;;10.06;100.00
9784;BME280;4931;44.874;-1.092;2023-05-13T04:42:11;101764.72;;;10.03;100.00
9784;BME280;4931;44.874;-1.092;2023-05-13T04:44:36;101761.72;;;10.04;100.00
9784;BME280;4931;44.874;-1.092;2023-05-13T04:47:02;101760.22;;;9.96;100.00
9784;BME280;4931;44.874;-1.092;2023-05-13T04:49:27;101765.16;;;9.94;100.00
9784;BME280;4931;44.874;-1.092;2023-05-13T04:51:53;101765.63;;;9.91;100.00
9784;BME280;4931;44.874;-1.092;2023-05-13T04:54:18;101773.03;;;9.91;100.00
9784;BME280;4931;44.874;-1.092;2023-05-13T04:56:43;101773.03;;;9.91;100.00
9784;BME280;4931;44.874;-1.092;2023-05-13T04:59:09;101773.56;;;9.88;100.00
9784;BME280;4931;44.874;-1.092;2023-05-13T05:01:34;101790.00;;;9.88;100.00
9784;BME280;4931;44.874;-1.092;2023-05-13T05:04:00;101777.03;;;10.00;100.00
9784;BME280;4931;44.874;-1.092;2023-05-13T05:06:25;101785.16;;;9.95;100.00
9784;BME280;4931;44.874;-1.092;2023-05-13T05:08:51;101800.78;;;9.94;100.00
9784;BME280;4931;44.874;-1.092;2023-05-13T05:11:16;101801.53;;;9.90;100.00
9784;BME280;4931;44.874;-1.092;2023-05-13T05:13:41;101798.31;;;9.93;100.00
9784;BME280;4931;44.874;-1.092;2023-05-13T05:16:07;101799.84;;;9.89;100.00
9784;BME280;4931;44.874;-1.092;2023-05-13T05:18:33;101810.59;;;9.90;100.00
9784;BME280;4931;44.874;-1.092;2023-05-13T05:21:00;101806.69;;;9.86;100.00
9784;BME280;4931;44.874;-1.092;2023-05-13T05:23:25;101809.75;;;9.90;100.00
9784;BME280;4931;44.874;-1.092;2023-05-13T05:25:51;101809.25;;;9.93;100.00
9784;BME280;4931;44.874;-1.092;2023-05-13T05:28:16;101812.00;;;9.93;100.00
9784;BME280;4931;44.874;-1.092;2023-05-13T05:30:41;101807.69;;;9.97;100.00
9784;BME280;4931;44.874;-1.092;2023-05-13T05:33:07;101810.50;;;10.02;100.00
9784;BME280;4931;44.874;-1.092;2023-05-13T05:35:32;101807.94;;;10.12;100.00
9784;BME280;4931;44.874;-1.092;2023-05-13T05:38:01;101812.53;;;10.29;100.00
9784;BME280;4931;44.874;-1.092;2023-05-13T05:40:27;101821.66;;;10.35;100.00
9784;BME280;4931;44.874;-1.092;2023-05-13T05:42:53;101823.84;;;10.50;100.00
9784;BME280;4931;44.874;-1.092;2023-05-13T05:45:18;101830.94;;;10.68;100.00
9784;BME280;4931;44.874;-1.092;2023-05-13T05:47:43;101820.72;;;10.85;100.00
9784;BME280;4931;44.874;-1.092;2023-05-13T05:50:09;101832.44;;;11.03;100.00
9784;BME280;4931;44.874;-1.092;2023-05-13T05:52:35;101832.78;;;11.06;100.00
9784;BME280;4931;44.874;-1.092;2023-05-13T05:55:00;101829.56;;;11.15;100.00
9784;BME280;4931;44.874;-1.092;2023-05-13T05:57:25;101834.63;;;11.28;100.00
9784;BME280;4931;44.874;-1.092;2023-05-13T05:59:50;101830.97;;;11.44;100.00
9784;BME280;4931;44.874;-1.092;2023-05-13T06:02:16;101838.28;;;11.61;100.00
9784;BME280;4931;44.874;-1.092;2023-05-13T06:04:41;101834.56;;;11.77;100.00
9784;BME280;4931;44.874;-1.092;2023-05-13T06:07:06;101836.13;;;11.95;100.00
9784;BME280;4931;44.874;-1.092;2023-05-13T06:09:32;101835.94;;;12.07;100.00
9784;BME280;4931;44.874;-1.092;2023-05-13T06:11:58;101838.44;;;12.09;100.00
9784;BME280;4931;44.874;-1.092;2023-05-13T06:14:23;101838.97;;;12.06;100.00
9784;BME280;4931;44.874;-1.092;2023-05-13T06:16:48;101840.94;;;12.16;100.00
9784;BME280;4931;44.874;-1.092;2023-05-13T06:19:13;101848.75;;;12.29;100.00
9784;BME280;4931;44.874;-1.092;2023-05-13T06:21:39;101846.69;;;12.52;100.00
9784;BME280;4931;44.874;-1.092;2023-05-13T06:24:07;101840.09;;;12.58;100.00
9784;BME280;4931;44.874;-1.092;2023-05-13T06:26:32;101841.34;;;12.83;100.00
9784;BME280;4931;44.874;-1.092;2023-05-13T06:28:57;101858.97;;;12.87;100.00
9784;BME280;4931;44.874;-1.092;2023-05-13T06:31:23;101853.28;;;13.14;100.00
9784;BME280;4931;44.874;-1.092;2023-05-13T06:33:48;101863.47;;;13.03;100.00
9784;BME280;4931;44.874;-1.092;2023-05-13T06:36:13;101861.19;;;12.85;100.00
9784;BME280;4931;44.874;-1.092;2023-05-13T06:38:39;101860.06;;;12.81;100.00
9784;BME280;4931;44.874;-1.092;2023-05-13T06:41:04;101860.59;;;12.83;100.00
9784;BME280;4931;44.874;-1.092;2023-05-13T06:43:30;101861.69;;;12.82;100.00
9784;BME280;4931;44.874;-1.092;2023-05-13T06:45:55;101858.72;;;12.93;100.00
9784;BME280;4931;44.874;-1.092;2023-05-13T06:48:21;101862.44;;;13.30;100.00
9784;BME280;4931;44.874;-1.092;2023-05-13T06:50:46;101858.94;;;13.66;100.00
9784;BME280;4931;44.874;-1.092;2023-05-13T06:53:13;101860.91;;;13.91;100.00
9784;BME280;4931;44.874;-1.092;2023-05-13T06:55:39;101853.16;;;13.93;100.00
9784;BME280;4931;44.874;-1.092;2023-05-13T06:58:06;101856.50;;;13.95;100.00
9784;BME280;4931;44.874;-1.092;2023-05-13T07:00:35;101863.09;;;14.20;100.00
9784;BME280;4931;44.874;-1.092;2023-05-13T07:03:00;101856.75;;;14.09;100.00
9784;BME280;4931;44.874;-1.092;2023-05-13T07:05:27;101856.44;;;14.36;100.00
9784;BME280;4931;44.874;-1.092;2023-05-13T07:07:52;101867.75;;;14.50;100.00
9784;BME280;4931;44.874;-1.092;2023-05-13T07:10:18;101861.38;;;14.70;100.00
9784;BME280;4931;44.874;-1.092;2023-05-13T07:12:43;101859.97;;;14.78;100.00
9784;BME280;4931;44.874;-1.092;2023-05-13T07:15:09;101856.84;;;14.95;100.00
9784;BME280;4931;44.874;-1.092;2023-05-13T07:17:34;101856.19;;;15.19;100.00
9784;BME280;4931;44.874;-1.092;2023-05-13T07:20:00;101853.50;;;15.03;100.00
9784;BME280;4931;44.874;-1.092;2023-05-13T07:22:25;101850.59;;;15.29;100.00
9784;BME280;4931;44.874;-1.092;2023-05-13T07:24:51;101849.72;;;15.39;100.00
9784;BME280;4931;44.874;-1.092;2023-05-13T07:27:16;101854.91;;;15.46;100.00
9784;BME280;4931;44.874;-1.092;2023-05-13T07:29:42;101856.56;;;15.47;100.00
9784;BME280;4931;44.874;-1.092;2023-05-13T07:32:07;101859.56;;;15.55;100.00
9784;BME280;4931;44.874;-1.092;2023-05-13T07:34:32;101854.91;;;15.90;100.00
9784;BME280;4931;44.874;-1.092;2023-05-13T07:36:58;101863.22;;;16.20;100.00
9784;BME280;4931;44.874;-1.092;2023-05-13T07:39:23;101859.22;;;16.36;100.00
9784;BME280;4931;44.874;-1.092;2023-05-13T07:41:49;101858.97;;;16.57;100.00
9784;BME280;4931;44.874;-1.092;2023-05-13T07:44:14;101862.31;;;16.78;100.00
9784;BME280;4931;44.874;-1.092;2023-05-13T07:46:40;101858.59;;;16.93;100.00
9784;BME280;4931;44.874;-1.092;2023-05-13T07:49:05;101853.56;;;16.71;100.00
9784;BME280;4931;44.874;-1.092;2023-05-13T07:51:33;101856.56;;;16.74;100.00
9784;BME280;4931;44.874;-1.092;2023-05-13T07:53:58;101860.47;;;16.73;100.00
9784;BME280;4931;44.874;-1.092;2023-05-13T07:56:23;101852.94;;;17.03;100.00
9784;BME280;4931;44.874;-1.092;2023-05-13T07:58:49;101853.97;;;17.07;100.00
9784;BME280;4931;44.874;-1.092;2023-05-13T08:01:14;101855.84;;;17.12;100.00
9784;BME280;4931;44.874;-1.092;2023-05-13T08:03:40;101861.31;;;16.45;100.00
9784;BME280;4931;44.874;-1.092;2023-05-13T08:06:05;101862.13;;;16.74;100.00
9784;BME280;4931;44.874;-1.092;2023-05-13T08:08:30;101853.72;;;16.55;100.00
9784;BME280;4931;44.874;-1.092;2023-05-13T08:10:56;101861.06;;;16.95;100.00
9784;BME280;4931;44.874;-1.092;2023-05-13T08:13:21;101854.53;;;17.04;100.00
9784;BME280;4931;44.874;-1.092;2023-05-13T08:15:47;101855.03;;;17.12;100.00
9784;BME280;4931;44.874;-1.092;2023-05-13T08:18:12;101859.09;;;16.95;100.00
9784;BME280;4931;44.874;-1.092;2023-05-13T08:20:37;101860.25;;;16.94;100.00
9784;BME280;4931;44.874;-1.092;2023-05-13T08:23:03;101866.09;;;16.63;100.00
9784;BME280;4931;44.874;-1.092;2023-05-13T08:25:28;101857.19;;;16.42;100.00
9784;BME280;4931;44.874;-1.092;2023-05-13T08:27:53;101863.53;;;16.96;100.00
9784;BME280;4931;44.874;-1.092;2023-05-13T08:30:19;101850.34;;;17.07;100.00
9784;BME280;4931;44.874;-1.092;2023-05-13T08:32:44;101854.28;;;17.25;100.00
9784;BME280;4931;44.874;-1.092;2023-05-13T08:35:09;101857.50;;;17.51;100.00
9784;BME280;4931;44.874;-1.092;2023-05-13T08:37:35;101855.66;;;17.47;100.00
9784;BME280;4931;44.874;-1.092;2023-05-13T08:40:00;101850.91;;;17.09;100.00
9784;BME280;4931;44.874;-1.092;2023-05-13T08:42:31;101852.25;;;17.31;100.00
9784;BME280;4931;44.874;-1.092;2023-05-13T08:44:56;101855.88;;;17.83;100.00
9784;BME280;4931;44.874;-1.092;2023-05-13T08:47:35;101842.97;;;18.12;100.00
9784;BME280;4931;44.874;-1.092;2023-05-13T08:50:03;101842.19;;;18.53;100.00
9784;BME280;4931;44.874;-1.092;2023-05-13T08:52:28;101844.94;;;17.92;100.00
9784;BME280;4931;44.874;-1.092;2023-05-13T08:54:54;101853.25;;;18.25;100.00
9784;BME280;4931;44.874;-1.092;2023-05-13T08:57:22;101846.50;;;18.31;100.00
9784;BME280;4931;44.874;-1.092;2023-05-13T08:59:48;101835.19;;;18.41;100.00
9784;BME280;4931;44.874;-1.092;2023-05-13T09:02:13;101846.19;;;18.33;100.00
9784;BME280;4931;44.874;-1.092;2023-05-13T09:04:38;101835.00;;;18.52;100.00
9784;BME280;4931;44.874;-1.092;2023-05-13T09:07:06;101840.66;;;18.61;100.00
9784;BME280;4931;44.874;-1.092;2023-05-13T09:09:32;101840.66;;;18.88;100.00
9784;BME280;4931;44.874;-1.092;2023-05-13T09:11:57;101830.84;;;19.19;100.00
9784;BME280;4931;44.874;-1.092;2023-05-13T09:14:26;101841.19;;;19.04;100.00
9784;BME280;4931;44.874;-1.092;2023-05-13T09:16:54;101844.88;;;19.00;100.00
9784;BME280;4931;44.874;-1.092;2023-05-13T09:19:19;101854.13;;;19.23;100.00
9784;BME280;4931;44.874;-1.092;2023-05-13T09:21:47;101849.88;;;19.62;100.00
9784;BME280;4931;44.874;-1.092;2023-05-13T09:24:14;101848.03;;;19.57;100.00
9784;BME280;4931;44.874;-1.092;2023-05-13T09:26:42;101852.25;;;19.78;100.00
9784;BME280;4931;44.874;-1.092;2023-05-13T09:31:42;101844.66;;;19.24;100.00
9784;BME280;4931;44.874;-1.092;2023-05-13T09:34:08;101857.88;;;19.04;100.00
9784;BME280;4931;44.874;-1.092;2023-05-13T09:36:34;101859.09;;;18.70;100.00
9784;BME280;4931;44.874;-1.092;2023-05-13T09:38:59;101858.84;;;18.53;100.00
9784;BME280;4931;44.874;-1.092;2023-05-13T09:41:29;101853.81;;;18.83;100.00
9784;BME280;4931;44.874;-1.092;2023-05-13T09:43:54;101847.66;;;18.86;100.00
9784;BME280;4931;44.874;-1.092;2023-05-13T09:46:20;101839.09;;;19.24;100.00
9784;BME280;4931;44.874;-1.092;2023-05-13T09:48:45;101845.38;;;18.88;100.00
9784;BME280;4931;44.874;-1.092;2023-05-13T09:51:10;101841.25;;;18.85;100.00
9784;BME280;4931;44.874;-1.092;2023-05-13T09:53:36;101849.38;;;18.54;100.00
9784;BME280;4931;44.874;-1.092;2023-05-13T09:56:01;101844.88;;;18.72;100.00
9784;BME280;4931;44.874;-1.092;2023-05-13T09:58:27;101847.16;;;18.56;100.00
9784;BME280;4931;44.874;-1.092;2023-05-13T10:00:54;101841.78;;;18.73;100.00
9784;BME280;4931;44.874;-1.092;2023-05-13T10:03:20;101838.28;;;18.54;100.00
9784;BME280;4931;44.874;-1.092;2023-05-13T10:05:45;101829.84;;;19.01;100.00
9784;BME280;4931;44.874;-1.092;2023-05-13T10:08:12;101839.47;;;19.31;100.00
9784;BME280;4931;44.874;-1.092;2023-05-13T10:10:40;101828.47;;;19.49;100.00
9784;BME280;4931;44.874;-1.092;2023-05-13T10:13:07;101831.34;;;20.03;100.00
9784;BME280;4931;44.874;-1.092;2023-05-13T10:15:34;101838.28;;;20.46;100.00
9784;BME280;4931;44.874;-1.092;2023-05-13T10:18:00;101838.56;;;20.35;100.00
9784;BME280;4931;44.874;-1.092;2023-05-13T10:20:26;101839.28;;;20.18;100.00
9784;BME280;4931;44.874;-1.092;2023-05-13T10:22:51;101838.88;;;19.80;100.00
9784;BME280;4931;44.874;-1.092;2023-05-13T10:25:17;101835.63;;;20.09;100.00
9784;BME280;4931;44.874;-1.092;2023-05-13T10:27:43;101836.88;;;19.94;100.00
9784;BME280;4931;44.874;-1.092;2023-05-13T10:30:08;101831.81;;;19.96;100.00
9784;BME280;4931;44.874;-1.092;2023-05-13T10:32:35;101841.59;;;19.34;100.00
9784;BME280;4931;44.874;-1.092;2023-05-13T10:35:11;101840.13;;;19.73;100.00
9784;BME280;4931;44.874;-1.092;2023-05-13T10:42:52;101829.16;;;19.91;100.00
9784;BME280;4931;44.874;-1.092;2023-05-13T10:45:20;101828.16;;;20.18;100.00
9784;BME280;4931;44.874;-1.092;2023-05-13T10:47:49;101830.38;;;20.07;100.00
9784;BME280;4931;44.874;-1.092;2023-05-13T10:50:24;101830.91;;;19.87;100.00
9784;BME280;4931;44.874;-1.092;2023-05-13T10:52:54;101835.44;;;19.37;100.00
9784;BME280;4931;44.874;-1.092;2023-05-13T10:55:20;101836.63;;;19.08;100.00
9784;BME280;4931;44.874;-1.092;2023-05-13T11:00:29;101842.81;;;19.05;100.00
9784;BME280;4931;44.874;-1.092;2023-05-13T11:02:54;101832.09;;;18.99;100.00
9784;BME280;4931;44.874;-1.092;2023-05-13T11:05:20;101836.66;;;18.95;100.00
9784;BME280;4931;44.874;-1.092;2023-05-13T11:07:55;101832.59;;;18.87;100.00
9784;BME280;4931;44.874;-1.092;2023-05-13T11:10:24;101833.66;;;18.63;100.00
9784;BME280;4931;44.874;-1.092;2023-05-13T11:13:36;101832.31;;;18.74;100.00
9784;BME280;4931;44.874;-1.092;2023-05-13T11:15:43;101832.63;;;18.59;100.00
9784;BME280;4931;44.874;-1.092;2023-05-13T11:18:10;101830.66;;;18.73;100.00
9784;BME280;4931;44.874;-1.092;2023-05-13T11:20:38;101830.03;;;18.77;100.00
9784;BME280;4931;44.874;-1.092;2023-05-13T11:23:03;101821.22;;;19.25;100.00
9784;BME280;4931;44.874;-1.092;2023-05-13T11:25:29;101826.97;;;19.65;100.00
9784;BME280;4931;44.874;-1.092;2023-05-13T11:27:54;101821.09;;;19.89;100.00
9784;BME280;4931;44.874;-1.092;2023-05-13T11:30:20;101820.75;;;20.14;100.00
9784;BME280;4931;44.874;-1.092;2023-05-13T11:35:18;101827.31;;;19.86;100.00
9784;BME280;4931;44.874;-1.092;2023-05-13T11:37:44;101827.38;;;19.72;100.00
9784;BME280;4931;44.874;-1.092;2023-05-13T11:40:10;101820.16;;;19.71;100.00
9784;BME280;4931;44.874;-1.092;2023-05-13T11:42:36;101829.50;;;19.53;100.00
9784;BME280;4931;44.874;-1.092;2023-05-13T11:45:03;101826.69;;;19.30;100.00
9784;BME280;4931;44.874;-1.092;2023-05-13T11:47:29;101832.25;;;19.30;100.00
9784;BME280;4931;44.874;-1.092;2023-05-13T11:49:54;101824.31;;;19.37;100.00
9784;BME280;4931;44.874;-1.092;2023-05-13T11:52:21;101824.97;;;19.57;100.00
9784;BME280;4931;44.874;-1.092;2023-05-13T11:54:47;101826.59;;;19.58;100.00
9784;BME280;4931;44.874;-1.092;2023-05-13T11:57:34;101823.25;;;19.70;100.00
9784;BME280;4931;44.874;-1.092;2023-05-13T11:59:59;101819.50;;;19.74;100.00
9784;BME280;4931;44.874;-1.092;2023-05-13T12:02:26;101805.72;;;19.92;100.00
9784;BME280;4931;44.874;-1.092;2023-05-13T12:04:52;101808.34;;;20.20;100.00
9784;BME280;4931;44.874;-1.092;2023-05-13T12:07:18;101814.28;;;20.27;100.00
9784;BME280;4931;44.874;-1.092;2023-05-13T12:09:43;101813.69;;;20.07;100.00
9784;BME280;4931;44.874;-1.092;2023-05-13T12:12:09;101810.81;;;19.90;100.00
9784;BME280;4931;44.874;-1.092;2023-05-13T12:14:34;101809.75;;;20.09;100.00
9784;BME280;4931;44.874;-1.092;2023-05-13T12:16:59;101824.03;;;20.16;100.00
9784;BME280;4931;44.874;-1.092;2023-05-13T12:19:25;101813.81;;;20.02;100.00
9784;BME280;4931;44.874;-1.092;2023-05-13T12:21:50;101815.84;;;20.11;100.00
9784;BME280;4931;44.874;-1.092;2023-05-13T12:24:22;101813.13;;;20.28;100.00
9784;BME280;4931;44.874;-1.092;2023-05-13T12:26:47;101814.06;;;19.92;100.00
9784;BME280;4931;44.874;-1.092;2023-05-13T12:29:13;101819.50;;;19.74;100.00
9784;BME280;4931;44.874;-1.092;2023-05-13T12:31:40;101819.31;;;19.71;100.00
9784;BME280;4931;44.874;-1.092;2023-05-13T12:34:06;101821.75;;;19.86;100.00
9784;BME280;4931;44.874;-1.092;2023-05-13T12:36:31;101827.00;;;19.88;100.00
9784;BME280;4931;44.874;-1.092;2023-05-13T12:39:09;101822.56;;;20.18;100.00
9784;BME280;4931;44.874;-1.092;2023-05-13T12:41:36;101814.34;;;20.45;100.00
9784;BME280;4931;44.874;-1.092;2023-05-13T12:44:02;101818.91;;;20.09;100.00
9784;BME280;4931;44.874;-1.092;2023-05-13T12:46:28;101813.53;;;20.44;100.00
9784;BME280;4931;44.874;-1.092;2023-05-13T12:48:54;101816.00;;;20.14;100.00
9784;BME280;4931;44.874;-1.092;2023-05-13T12:51:20;101811.00;;;20.25;100.00
9784;BME280;4931;44.874;-1.092;2023-05-13T12:53:45;101818.16;;;20.49;100.00
9784;BME280;4931;44.874;-1.092;2023-05-13T12:56:10;101803.97;;;20.36;100.00
9784;BME280;4931;44.874;-1.092;2023-05-13T12:58:36;101810.13;;;20.56;100.00